createdAt,value
2018-10-15T00:01:26.870Z,100554.84
2018-10-15T00:06:21.308Z,100557.09
2018-10-15T00:11:15.746Z,100561.17
2018-10-15T00:16:10.202Z,100561.06
2018-10-15T00:21:04.660Z,100557.87
2018-10-15T00:25:59.136Z,100554.84
2018-10-15T00:30:53.580Z,100551.69
2018-10-15T00:35:48.075Z,100547.15
2018-10-15T00:40:42.556Z,100539.73
2018-10-15T00:45:37.184Z,100542.56
2018-10-15T00:50:31.890Z,100537.34
2018-10-15T00:55:26.609Z,100530.93
2018-10-15T01:00:21.072Z,100532.70
2018-10-15T01:05:15.586Z,100540.30
2018-10-15T01:10:11.572Z,100541.48
2018-10-15T01:15:07.702Z,100535.27
2018-10-15T01:20:02.171Z,100529.75
2018-10-15T01:24:57.695Z,100538.63
2018-10-15T01:29:52.196Z,100530.80
2018-10-15T01:34:46.647Z,100534.66
2018-10-15T01:39:41.107Z,100532.13
2018-10-15T01:44:35.734Z,100543.03
2018-10-15T01:49:30.181Z,100535.00
2018-10-15T01:54:24.620Z,100534.80
2018-10-15T01:59:19.273Z,100543.65
2018-10-15T02:04:13.728Z,100529.65
2018-10-15T02:09:10.488Z,100541.08
2018-10-15T02:14:05.700Z,100535.78
2018-10-15T02:19:00.148Z,100532.83
2018-10-15T02:23:54.638Z,100537.56
2018-10-15T02:28:49.123Z,100541.30
2018-10-15T02:33:43.895Z,100543.94
2018-10-15T02:38:38.359Z,100546.09
2018-10-15T02:43:33.040Z,100545.66
2018-10-15T02:48:27.500Z,100542.48
2018-10-15T02:53:21.967Z,100543.10
2018-10-15T02:58:16.560Z,100552.20
2018-10-15T03:03:11.131Z,100549.63
2018-10-15T03:08:05.711Z,100555.58
2018-10-15T03:13:00.136Z,100556.36
2018-10-15T03:17:54.581Z,100554.70
2018-10-15T03:22:49.028Z,100547.35
2018-10-15T03:27:43.528Z,100552.72
2018-10-15T03:32:38.442Z,100564.80
2018-10-15T03:37:32.897Z,100558.79
2018-10-15T03:42:27.558Z,100556.61
2018-10-15T03:47:22.036Z,100572.44
2018-10-15T03:52:16.495Z,100574.30
2018-10-15T03:57:10.938Z,100577.36
2018-10-15T04:02:06.159Z,100580.16
2018-10-15T04:07:00.851Z,100585.77
2018-10-15T04:11:55.312Z,100588.92
2018-10-15T04:16:49.772Z,100591.25
2018-10-15T04:21:44.259Z,100591.85
2018-10-15T04:26:39.114Z,100601.47
2018-10-15T04:31:33.571Z,100595.66
2018-10-15T04:36:28.354Z,100606.50
2018-10-15T04:41:22.802Z,100601.42
2018-10-15T04:46:17.305Z,100606.30
2018-10-15T04:51:11.768Z,100609.22
2018-10-15T04:56:06.786Z,100615.67
2018-10-15T05:01:01.382Z,100615.57
2018-10-15T05:05:55.863Z,100613.53
2018-10-15T05:10:50.474Z,100629.80
2018-10-15T05:15:44.972Z,100628.58
2018-10-15T05:20:39.513Z,100630.19
2018-10-15T05:25:34.192Z,100625.59
2018-10-15T05:30:28.777Z,100625.70
2018-10-15T05:35:23.348Z,100636.63
2018-10-15T05:40:18.117Z,100641.95
2018-10-15T05:45:13.387Z,100642.31
2018-10-15T05:50:10.085Z,100661.70
2018-10-15T05:55:05.043Z,100668.36
2018-10-15T05:59:59.563Z,100685.34
2018-10-15T06:04:54.031Z,100684.02
2018-10-15T06:09:48.806Z,100691.77
2018-10-15T06:14:43.340Z,100702.47
2018-10-15T06:19:38.019Z,100705.25
2018-10-15T06:24:32.712Z,100707.19
2018-10-15T06:29:27.551Z,100708.66
2018-10-15T06:34:22.058Z,100709.26
2018-10-15T06:39:16.618Z,100715.07
2018-10-15T06:44:11.512Z,100719.81
2018-10-15T06:49:06.761Z,100723.21
2018-10-15T06:54:01.684Z,100721.62
2018-10-15T06:58:56.457Z,100734.93
2018-10-15T07:03:50.938Z,100738.14
2018-10-15T07:08:45.435Z,100735.22
2018-10-15T07:14:16.480Z,100736.89
2018-10-15T07:19:12.811Z,100737.36
2018-10-15T07:24:09.976Z,100747.53
2018-10-15T07:29:06.610Z,100743.52
2018-10-15T07:34:03.043Z,100742.81
2018-10-15T07:38:59.351Z,100740.09
2018-10-15T07:43:55.713Z,100744.97
2018-10-15T07:48:52.365Z,100752.87
2018-10-15T07:53:49.115Z,100760.49
2018-10-15T07:58:45.805Z,100769.39
2018-10-15T08:03:42.502Z,100763.70
2018-10-15T08:08:39.341Z,100764.03
2018-10-15T08:13:36.080Z,100763.83
2018-10-15T08:18:32.759Z,100772.31
2018-10-15T08:23:29.419Z,100771.98
2018-10-15T08:28:26.158Z,100773.66
2018-10-15T08:33:22.805Z,100778.80
2018-10-15T08:38:19.459Z,100784.20
2018-10-15T08:43:16.106Z,100779.66
2018-10-15T08:48:13.083Z,100787.00
2018-10-15T08:53:09.670Z,100784.73
2018-10-15T08:58:06.675Z,100782.08
2018-10-15T09:03:03.486Z,100784.55
2018-10-15T09:08:00.216Z,100777.14
2018-10-15T09:12:56.653Z,100784.69
2018-10-15T09:17:53.434Z,100778.70
2018-10-15T09:22:49.989Z,100791.40
2018-10-15T09:27:47.194Z,100790.25
2018-10-15T09:32:44.384Z,100790.55
2018-10-15T09:37:41.435Z,100778.79
2018-10-15T09:42:38.042Z,100780.31
2018-10-15T09:47:34.679Z,100781.48
2018-10-15T09:52:31.340Z,100776.19
2018-10-15T09:57:27.990Z,100789.46
2018-10-15T10:02:24.872Z,100781.31
2018-10-15T10:07:21.311Z,100783.61
2018-10-15T10:12:17.711Z,100782.09
2018-10-15T10:17:14.093Z,100783.95
2018-10-15T10:22:10.938Z,100785.70
2018-10-15T10:27:07.516Z,100791.12
2018-10-15T10:32:03.964Z,100796.83
2018-10-15T10:37:05.461Z,100783.66
2018-10-15T10:42:01.781Z,100778.76
2018-10-15T10:46:58.142Z,100780.78
2018-10-15T10:51:54.555Z,100779.60
2018-10-15T10:56:50.949Z,100776.92
2018-10-15T11:01:47.388Z,100773.70
2018-10-15T11:06:43.743Z,100770.84
2018-10-15T11:11:40.154Z,100769.48
2018-10-15T11:16:36.549Z,100764.25
2018-10-15T11:21:33.078Z,100768.16
2018-10-15T11:26:29.496Z,100756.00
2018-10-15T11:31:26.078Z,100751.95
2018-10-15T11:36:22.611Z,100748.70
2018-10-15T11:41:19.168Z,100746.34
2018-10-15T11:46:15.549Z,100737.20
2018-10-15T11:51:12.017Z,100738.53
2018-10-15T11:56:08.983Z,100733.42
2018-10-15T12:01:05.346Z,100737.63
2018-10-15T12:06:01.805Z,100728.49
2018-10-15T12:10:58.223Z,100725.94
2018-10-15T12:15:54.641Z,100724.73
2018-10-15T12:20:51.003Z,100720.77
2018-10-15T12:25:47.395Z,100724.98
2018-10-15T12:30:44.193Z,100718.53
2018-10-15T12:35:40.579Z,100715.42
2018-10-15T12:40:36.954Z,100714.03
2018-10-15T12:45:49.123Z,100710.23
2018-10-15T12:50:45.531Z,100706.52
2018-10-15T12:55:42.368Z,100710.17
2018-10-15T13:00:38.804Z,100710.47
2018-10-15T13:05:35.222Z,100712.95
2018-10-15T13:10:32.067Z,100702.29
2018-10-15T13:15:28.450Z,100702.42
2018-10-15T13:20:24.975Z,100705.80
2018-10-15T13:25:21.356Z,100700.39
2018-10-15T13:30:17.786Z,100694.47
2018-10-15T13:35:15.364Z,100695.11
2018-10-15T13:40:11.808Z,100693.02
2018-10-15T13:45:10.852Z,100697.73
2018-10-15T13:50:08.030Z,100698.73
2018-10-15T13:55:04.501Z,100701.13
2018-10-15T14:00:03.033Z,100698.25
2018-10-15T14:04:59.508Z,100701.50
2018-10-15T14:09:55.853Z,100708.45
2018-10-15T14:14:52.306Z,100704.57
2018-10-15T14:19:48.696Z,100715.41
2018-10-15T14:24:45.084Z,100714.60
2018-10-15T14:29:41.455Z,100710.54
2018-10-15T14:34:38.215Z,100708.02
2018-10-15T14:39:34.592Z,100717.19
2018-10-15T14:44:31.165Z,100725.88
2018-10-15T14:49:27.526Z,100724.75
2018-10-15T14:54:24.097Z,100726.16
2018-10-15T14:59:20.596Z,100728.77
2018-10-15T15:04:16.980Z,100732.56
2018-10-15T15:10:08.259Z,100740.39
2018-10-15T15:15:04.668Z,100732.52
2018-10-15T15:20:01.040Z,100740.34
2018-10-15T15:24:57.479Z,100742.41
2018-10-15T15:29:53.896Z,100747.67
2018-10-15T15:34:50.283Z,100749.41
2018-10-15T15:39:46.922Z,100751.27
2018-10-15T15:44:43.260Z,100764.77
2018-10-15T15:49:39.646Z,100762.06
2018-10-15T15:54:36.104Z,100773.84
2018-10-15T15:59:32.478Z,100772.83
2018-10-15T16:04:29.067Z,100778.20
2018-10-15T16:09:28.927Z,100780.16
2018-10-15T16:14:26.469Z,100787.36
2018-10-15T16:19:22.913Z,100791.53
2018-10-15T16:24:19.464Z,100798.35
2018-10-15T16:29:16.292Z,100803.93
2018-10-15T16:34:12.940Z,100808.55
2018-10-15T16:39:18.363Z,100816.12
2018-10-15T16:44:15.076Z,100833.46
2018-10-15T16:49:12.836Z,100840.62
